Time;durP1;ratioP1;P1;durP2;ratioP2;P2;SDS_P1;SDS_P2;PMS_P1;PMS_P2;Temp;Humidity;BMP_temperature;BMP_pressure;BME280_temperature;BME280_humidity;BME280_pressure;Samples;Min_cycle;Max_cycle;Signal;HPM_P1;HPM_P2
2022/09/25 00:01:34;;;;;;;;;2.00;2.00;;;;;17.20;100.00;101186.72;5012495;28;45279;-72
2022/09/25 00:04:00;;;;;;;;;1.33;1.33;;;;;17.19;100.00;101189.44;5005432;28;45645;-73
2022/09/25 00:06:27;;;;;;;;;3.33;2.00;;;;;17.18;100.00;101188.53;4998231;28;45561;-72
2022/09/25 00:08:53;;;;;;;;;3.33;2.33;;;;;17.16;100.00;101190.34;5003066;28;45540;-72
2022/09/25 00:11:22;;;;;;;;;1.33;1.33;;;;;17.14;100.00;101194.81;5005198;28;46078;-72
2022/09/25 00:13:49;;;;;;;;;1.00;1.00;;;;;17.08;100.00;101188.66;5013891;28;45511;-72
2022/09/25 00:16:20;;;;;;;;;3.00;3.00;;;;;17.09;100.00;101199.31;5006382;28;46214;-71
2022/09/25 00:21:30;;;;;;;;;3.67;2.00;;;;;17.05;100.00;101202.94;5006756;28;45487;-71
2022/09/25 00:24:05;;;;;;;;;5.67;2.00;;;;;17.03;100.00;101204.69;4999967;28;45616;-72
2022/09/25 00:26:32;;;;;;;;;1.33;1.33;;;;;17.02;100.00;101197.59;5008642;28;47541;-72
2022/09/25 00:29:00;;;;;;;;;2.00;2.00;;;;;17.02;100.00;101209.16;5009930;28;45300;-72
2022/09/25 00:31:25;;;;;;;;;2.00;2.00;;;;;16.98;100.00;101202.06;5002700;28;45493;-71
2022/09/25 00:33:51;;;;;;;;;3.00;3.00;;;;;16.99;100.00;101202.97;5002575;28;45195;-72
2022/09/25 00:36:16;;;;;;;;;5.00;2.00;;;;;16.98;100.00;101204.75;5014675;28;46897;-72
2022/09/25 00:38:42;;;;;;;;;3.00;1.33;;;;;17.02;100.00;101211.81;5015859;28;58965;-72
2022/09/25 00:41:07;;;;;;;;;3.33;2.00;;;;;17.01;100.00;101198.50;5015392;28;45392;-72
2022/09/25 00:43:33;;;;;;;;;5.00;3.00;;;;;17.04;100.00;101195.78;5014894;28;60386;-72
2022/09/25 00:45:59;;;;;;;;;3.00;3.00;;;;;17.04;100.00;101201.13;5015866;28;45979;-72
2022/09/25 00:48:25;;;;;;;;;3.33;2.00;;;;;17.01;100.00;101195.84;4997946;28;45424;-72
2022/09/25 00:50:53;;;;;;;;;2.00;2.00;;;;;17.02;100.00;101201.16;5014518;28;65417;-72
2022/09/25 00:53:22;;;;;;;;;3.00;2.33;;;;;17.08;100.00;101205.53;4997948;28;45557;-72
2022/09/25 00:55:47;;;;;;;;;3.00;2.00;;;;;17.10;100.00;101203.75;4997763;28;45418;-73
2022/09/25 00:58:16;;;;;;;;;3.00;3.00;;;;;17.10;100.00;101195.75;4997752;28;53916;-72
2022/09/25 01:00:42;;;;;;;;;6.00;3.00;;;;;17.11;100.00;101194.84;4997876;28;45414;-72
2022/09/25 01:03:07;;;;;;;;;5.00;3.00;;;;;17.05;100.00;101186.91;5018058;28;51353;-71
2022/09/25 01:05:35;;;;;;;;;5.00;3.00;;;;;17.04;100.00;101198.47;5018447;28;45730;-72
2022/09/25 01:08:03;;;;;;;;;5.00;3.00;;;;;17.02;100.00;101187.81;5019576;28;45292;-72
2022/09/25 01:10:29;;;;;;;;;3.00;1.67;;;;;17.00;100.00;101186.97;5000620;28;45309;-72
2022/09/25 01:12:55;;;;;;;;;4.00;4.00;;;;;17.05;100.00;101194.91;5019566;28;45459;-71
2022/09/25 01:15:30;;;;;;;;;4.67;3.00;;;;;17.01;100.00;101202.06;5001263;28;46718;-72
2022/09/25 01:18:08;;;;;;;;;2.00;2.00;;;;;16.99;100.00;101201.19;5019016;28;45634;-72
2022/09/25 01:20:51;;;;;;;;;2.33;2.33;;;;;16.95;100.00;101186.13;5000989;28;45562;-72
2022/09/25 01:23:35;;;;;;;;;4.00;4.00;;;;;16.98;100.00;101198.53;5019293;28;46016;-73
2022/09/25 01:26:17;;;;;;;;;4.00;3.00;;;;;16.93;100.00;101187.91;5013371;28;46742;-72
2022/09/25 01:29:11;;;;;;;;;5.67;3.00;;;;;16.97;100.00;101196.75;5001034;28;45294;-72
2022/09/25 01:31:36;;;;;;;;;3.33;2.33;;;;;16.95;100.00;101199.47;5000904;28;45425;-72
2022/09/25 01:34:14;;;;;;;;;3.00;3.00;;;;;16.92;100.00;101191.47;5018618;28;45487;-72
2022/09/25 01:36:57;;;;;;;;;4.33;3.00;;;;;16.88;100.00;101178.16;5015608;28;46902;-73
2022/09/25 01:39:31;;;;;;;;;3.00;3.00;;;;;16.86;100.00;101183.53;5000841;28;45677;-73
2022/09/25 01:42:05;;;;;;;;;2.00;2.00;;;;;16.82;100.00;101181.78;5018453;28;45597;-73
2022/09/25 01:44:44;;;;;;;;;3.33;2.00;;;;;16.81;100.00;101190.69;5016316;28;45415;-72
2022/09/25 01:47:17;;;;;;;;;6.33;5.00;;;;;16.79;100.00;101188.94;5000812;28;45429;-71
2022/09/25 01:49:48;;;;;;;;;5.00;3.00;;;;;16.80;100.00;101182.72;5018615;28;45425;-72
2022/09/25 01:52:16;;;;;;;;;4.00;4.00;;;;;16.81;100.00;101181.81;4990060;28;46716;-72
2022/09/25 01:54:50;;;;;;;;;3.00;3.00;;;;;16.81;100.00;101181.81;5016986;28;45347;-72
2022/09/25 01:57:15;;;;;;;;;4.33;3.00;;;;;16.87;100.00;101192.41;5018169;28;47254;-71
2022/09/25 01:59:48;;;;;;;;;3.00;3.00;;;;;16.86;100.00;101199.53;5017977;28;45515;-72
2022/09/25 02:02:18;;;;;;;;;4.00;4.00;;;;;16.86;100.00;101194.19;5018466;28;45305;-72
2022/09/25 02:04:55;;;;;;;;;5.00;4.00;;;;;16.89;100.00;101199.53;5018440;28;45614;-72
2022/09/25 02:07:27;;;;;;;;;6.00;3.33;;;;;16.90;100.00;101201.28;5000492;28;45678;-73
2022/09/25 02:09:57;;;;;;;;;4.00;4.00;;;;;16.92;100.00;101210.13;5018748;28;45476;-72
2022/09/25 02:12:26;;;;;;;;;4.00;4.00;;;;;16.88;100.00;101199.50;4998267;28;45459;-72
2022/09/25 02:14:54;;;;;;;;;6.00;4.00;;;;;16.92;100.00;101204.81;4999488;28;45593;-72
2022/09/25 02:20:33;;;;;;;;;5.00;3.67;;;;;16.89;100.00;101199.53;5014686;28;45507;-72
2022/09/25 02:23:07;;;;;;;;;4.67;4.00;;;;;16.89;100.00;101195.97;5003747;28;45315;-72
2022/09/25 02:25:37;;;;;;;;;4.00;4.00;;;;;16.92;100.00;101201.25;5000018;28;45479;-72
2022/09/25 02:28:02;;;;;;;;;4.67;2.00;;;;;16.92;100.00;101207.47;4999566;28;45793;-72
2022/09/25 02:30:28;;;;;;;;;5.67;4.00;;;;;16.92;100.00;101207.47;4999756;28;45485;-72
2022/09/25 02:32:56;;;;;;;;;5.00;4.67;;;;;16.89;100.00;101204.84;5000154;28;45468;-71
2022/09/25 02:35:23;;;;;;;;;5.00;5.00;;;;;16.89;100.00;101203.97;4996631;28;45333;-72
2022/09/25 02:37:48;;;;;;;;;8.00;4.33;;;;;16.89;100.00;101194.19;4996810;28;46696;-72
2022/09/25 02:40:14;;;;;;;;;5.00;5.00;;;;;16.90;100.00;101203.06;4998236;28;45503;-72
2022/09/25 02:42:49;;;;;;;;;8.00;4.00;;;;;16.93;100.00;101211.03;5002044;28;45218;-73
2022/09/25 02:45:37;;;;;;;;;4.00;3.33;;;;;16.94;100.00;101210.16;4996873;28;45572;-72
2022/09/25 02:48:20;;;;;;;;;4.33;4.33;;;;;16.94;100.00;101205.69;4992739;28;45535;-72
2022/09/25 02:51:10;;;;;;;;;7.33;5.00;;;;;16.94;100.00;101211.03;4995947;28;46552;-73
2022/09/25 02:54:26;;;;;;;;;5.67;5.00;;;;;16.93;100.00;101211.91;4996283;28;45278;-71
2022/09/25 02:57:21;;;;;;;;;7.00;5.00;;;;;16.91;100.00;101210.16;4956492;28;45335;-73
2022/09/25 02:59:59;;;;;;;;;9.67;5.00;;;;;16.82;100.00;101204.91;4994917;28;45658;-72
2022/09/25 03:02:27;;;;;;;;;5.33;5.33;;;;;16.83;100.00;101220.00;4996394;28;45604;-73
2022/09/25 03:04:53;;;;;;;;;5.00;5.00;;;;;16.75;100.00;101209.41;4996062;28;45409;-72
2022/09/25 03:07:18;;;;;;;;;9.00;5.67;;;;;16.79;100.00;101223.63;4998336;28;45512;-72
2022/09/25 03:09:45;;;;;;;;;4.67;4.67;;;;;16.72;100.00;101218.34;4995903;28;46322;-72
2022/09/25 03:12:12;;;;;;;;;6.33;5.00;;;;;16.72;100.00;101221.00;4996566;28;45368;-72
2022/09/25 03:14:37;;;;;;;;;5.00;5.00;;;;;16.63;100.00;101199.69;4997199;28;45479;-73
2022/09/25 03:17:05;;;;;;;;;5.33;5.33;;;;;16.60;100.00;101199.72;4996404;28;45294;-72
2022/09/25 03:19:30;;;;;;;;;7.33;5.00;;;;;16.65;100.00;101218.34;4996113;28;45448;-72
2022/09/25 03:21:56;;;;;;;;;5.33;5.33;;;;;16.59;100.00;101218.41;4997512;28;45406;-72
2022/09/25 03:24:21;;;;;;;;;10.00;7.00;;;;;16.65;100.00;101223.69;4995089;28;57613;-71
2022/09/25 03:26:46;;;;;;;;;7.33;7.33;;;;;16.67;100.00;101228.13;4996965;28;45524;-72
2022/09/25 03:29:13;;;;;;;;;6.33;6.33;;;;;16.65;100.00;101221.00;4997118;28;45337;-72
2022/09/25 03:31:41;;;;;;;;;5.67;5.00;;;;;16.67;100.00;101227.19;4997289;28;45310;-72
2022/09/25 03:34:07;;;;;;;;;7.33;7.33;;;;;16.68;100.00;101229.00;4998215;28;45428;-73
2022/09/25 03:36:33;;;;;;;;;7.00;7.00;;;;;16.64;100.00;101216.59;5016970;28;45243;-73
2022/09/25 03:38:59;;;;;;;;;7.33;7.00;;;;;16.64;100.00;101228.13;5016414;28;46617;-72
2022/09/25 03:41:29;;;;;;;;;9.00;7.00;;;;;16.63;100.00;101226.38;5015706;28;66193;-72
2022/09/25 03:43:56;;;;;;;;;9.33;7.00;;;;;16.65;100.00;101237.88;5011273;28;45422;-72
2022/09/25 03:46:24;;;;;;;;;7.00;7.00;;;;;16.60;100.00;101231.72;4999751;28;45540;-71
2022/09/25 03:48:51;;;;;;;;;7.00;7.00;;;;;16.60;100.00;101236.16;5016046;28;47684;-71
2022/09/25 03:51:17;;;;;;;;;7.00;6.00;;;;;16.58;100.00;101229.97;5016911;28;45448;-72
2022/09/25 03:53:43;;;;;;;;;5.33;5.33;;;;;16.54;100.00;101226.44;5016171;28;45506;-72
2022/09/25 03:56:12;;;;;;;;;7.67;6.00;;;;;16.60;100.00;101233.50;5016829;28;45420;-73
2022/09/25 03:58:38;;;;;;;;;5.33;5.33;;;;;16.55;100.00;101219.31;5016606;28;46241;-72
2022/09/25 04:01:04;;;;;;;;;6.00;6.00;;;;;16.55;100.00;101221.97;5016796;28;45217;-73
2022/09/25 04:03:31;;;;;;;;;7.33;7.00;;;;;16.52;100.00;101222.91;5016320;28;45390;-71
2022/09/25 04:05:58;;;;;;;;;10.00;5.00;;;;;16.56;100.00;101224.63;4998767;28;45546;-72
2022/09/25 04:08:25;;;;;;;;;8.00;5.67;;;;;16.58;100.00;101233.50;5015681;28;46763;-73
2022/09/25 04:10:55;;;;;;;;;5.00;5.00;;;;;16.59;100.00;101234.41;5016402;28;45347;-73
2022/09/25 04:13:23;;;;;;;;;6.33;5.67;;;;;16.60;100.00;101239.69;4999201;28;45396;-72
2022/09/25 04:15:48;;;;;;;;;7.00;6.67;;;;;16.63;100.00;101244.16;5016472;28;45392;-73
2022/09/25 04:18:14;;;;;;;;;7.67;7.00;;;;;16.59;100.00;101232.59;5016481;28;45904;-72
2022/09/25 04:20:39;;;;;;;;;9.33;7.00;;;;;16.60;100.00;101234.38;5016115;28;45801;-73
2022/09/25 04:23:05;;;;;;;;;5.00;5.00;;;;;16.60;100.00;101231.72;5015534;28;54580;-72
2022/09/25 04:25:30;;;;;;;;;9.00;9.00;;;;;16.63;100.00;101236.16;5015483;28;59469;-72
2022/09/25 04:27:56;;;;;;;;;8.00;8.00;;;;;16.60;100.00;101231.72;5015177;28;56413;-73
2022/09/25 04:30:22;;;;;;;;;14.33;10.00;;;;;16.50;100.00;101224.66;5016214;28;45236;-72
2022/09/25 04:35:32;;;;;;;;;10.00;10.00;;;;;16.54;100.00;101231.75;5010802;28;45434;-72
2022/09/25 04:37:57;;;;;;;;;12.00;11.00;;;;;16.55;100.00;101240.63;5008927;28;46796;-72
2022/09/25 04:40:23;;;;;;;;;11.00;9.00;;;;;16.50;100.00;101238.88;5010112;28;68744;-73
2022/09/25 04:42:54;;;;;;;;;11.67;8.33;;;;;16.60;100.00;101258.38;4995818;28;50590;-73
2022/09/25 04:45:19;;;;;;;;;10.67;10.33;;;;;16.60;100.00;101258.38;4997013;28;45391;-72
2022/09/25 04:47:45;;;;;;;;;13.00;11.00;;;;;16.57;100.00;101245.06;4986123;28;58440;-73
2022/09/25 04:50:10;;;;;;;;;15.67;10.00;;;;;16.59;100.00;101253.94;5005081;28;58119;-72
2022/09/25 04:52:35;;;;;;;;;10.67;9.67;;;;;16.55;100.00;101245.97;5004642;28;58856;-72
2022/09/25 04:55:02;;;;;;;;;10.00;8.33;;;;;16.55;100.00;101251.28;5004807;28;57219;-73
2022/09/25 04:57:27;;;;;;;;;10.33;10.00;;;;;16.41;100.00;101236.28;5012569;28;47252;-71
2022/09/25 04:59:53;;;;;;;;;12.00;9.33;;;;;16.53;100.00;101264.66;4996846;28;45499;-72
2022/09/25 05:02:18;;;;;;;;;11.67;10.33;;;;;16.51;100.00;101269.09;4996680;28;45245;-72
2022/09/25 05:04:44;;;;;;;;;11.00;8.33;;;;;16.48;100.00;101270.00;4997080;28;45218;-73
2022/09/25 05:07:09;;;;;;;;;10.00;10.00;;;;;16.43;100.00;101261.16;5003108;28;64902;-71
2022/09/25 05:09:34;;;;;;;;;16.00;12.67;;;;;16.41;100.00;101270.06;4996586;28;45564;-72
2022/09/25 05:12:00;;;;;;;;;11.00;8.67;;;;;16.39;100.00;101264.72;5004914;28;60945;-72
2022/09/25 05:14:25;;;;;;;;;11.33;8.00;;;;;16.38;100.00;101270.06;5011099;28;45736;-72
2022/09/25 05:16:51;;;;;;;;;7.33;7.33;;;;;16.31;100.00;101261.22;5000070;28;47145;-73
2022/09/25 05:19:17;;;;;;;;;9.33;8.00;;;;;16.33;100.00;101269.22;5005828;28;45340;-72
2022/09/25 05:21:42;;;;;;;;;9.67;9.00;;;;;16.25;100.00;101263.94;5005622;28;60319;-72
2022/09/25 05:24:08;;;;;;;;;9.33;8.67;;;;;16.29;100.00;101275.44;4999369;28;59087;-72
2022/09/25 05:26:35;;;;;;;;;8.67;6.00;;;;;16.26;100.00;101278.13;5005048;28;45706;-73
2022/09/25 05:29:00;;;;;;;;;9.00;7.00;;;;;16.15;100.00;101260.44;4997712;28;45381;-72
2022/09/25 05:31:26;;;;;;;;;8.67;7.67;;;;;16.14;100.00;101271.97;4990122;28;45390;-73
2022/09/25 05:36:23;;;;;;;;;9.33;7.00;;;;;16.09;100.00;101287.09;5013486;28;46546;-72
2022/09/25 05:38:48;;;;;;;;;8.00;6.00;;;;;16.04;100.00;101286.22;5015114;28;45329;-72
2022/09/25 05:41:14;;;;;;;;;6.67;5.33;;;;;16.02;100.00;101289.78;5015324;28;45291;-73
2022/09/25 05:43:42;;;;;;;;;7.00;6.00;;;;;15.97;100.00;101290.69;5009331;28;46350;-72
2022/09/25 05:46:08;;;;;;;;;5.33;5.00;;;;;15.91;100.00;101287.16;5014694;28;47564;-72
2022/09/25 05:48:33;;;;;;;;;5.00;5.00;;;;;15.93;100.00;101301.38;5014916;28;45489;-71
2022/09/25 05:50:59;;;;;;;;;6.33;6.33;;;;;15.87;100.00;101288.97;5018459;28;45496;-72
2022/09/25 05:53:25;;;;;;;;;8.00;4.67;;;;;15.86;100.00;101289.84;5018348;28;45341;-72
2022/09/25 05:56:02;;;;;;;;;11.67;6.33;;;;;15.92;100.00;101304.91;5018723;28;45570;-73
2022/09/25 05:58:29;;;;;;;;;5.00;4.00;;;;;15.90;100.00;101306.69;5013914;28;45440;-73
2022/09/25 06:00:58;;;;;;;;;7.00;5.33;;;;;15.83;100.00;101302.28;5017663;28;45479;-72
2022/09/25 06:03:28;;;;;;;;;7.33;6.00;;;;;15.85;100.00;101313.81;5000432;28;45447;-72
2022/09/25 06:05:57;;;;;;;;;9.00;5.33;;;;;15.80;100.00;101313.81;5017882;28;46596;-73
2022/09/25 06:08:24;;;;;;;;;5.00;4.00;;;;;15.76;100.00;101319.16;5018275;28;45485;-72
2022/09/25 06:10:53;;;;;;;;;3.00;3.00;;;;;15.72;100.00;101318.28;5016291;28;45273;-73
2022/09/25 06:13:20;;;;;;;;;3.00;2.00;;;;;15.68;100.00;101319.19;5018115;28;45469;-72
2022/09/25 06:15:45;;;;;;;;;3.33;3.33;;;;;15.63;100.00;101324.53;5018060;28;46159;-73
2022/09/25 06:18:10;;;;;;;;;6.00;6.00;;;;;15.59;100.00;101316.50;5017590;28;64680;-72
2022/09/25 06:20:36;;;;;;;;;5.33;3.67;;;;;15.54;100.00;101324.50;5000321;28;45517;-72
2022/09/25 06:23:01;;;;;;;;;10.00;5.00;;;;;15.46;100.00;101323.63;4995599;28;52282;-72
2022/09/25 06:25:30;;;;;;;;;5.00;4.67;;;;;15.47;100.00;101317.41;5018005;28;45453;-71
2022/09/25 06:27:56;;;;;;;;;4.00;4.00;;;;;15.40;100.00;101305.91;5017507;28;45520;-71
2022/09/25 06:30:24;;;;;;;;;3.00;3.00;;;;;15.44;100.00;101333.38;5012706;28;45543;-71
2022/09/25 06:32:56;;;;;;;;;6.00;4.00;;;;;15.41;100.00;101320.97;5017147;28;45513;-71
2022/09/25 06:35:21;;;;;;;;;4.33;4.33;;;;;15.35;100.00;101315.66;5017488;28;47332;-71
2022/09/25 06:37:47;;;;;;;;;6.67;3.67;;;;;15.34;100.00;101323.63;5017340;28;45360;-72
2022/09/25 06:40:12;;;;;;;;;3.33;3.33;;;;;15.29;100.00;101313.00;5015755;28;56864;-70
2022/09/25 06:42:37;;;;;;;;;3.00;3.00;;;;;15.26;100.00;101315.66;5010122;28;45413;-71
2022/09/25 06:45:03;;;;;;;;;2.33;2.33;;;;;15.22;100.00;101316.53;5015748;28;66672;-71
2022/09/25 06:47:28;;;;;;;;;2.00;2.00;;;;;15.25;100.00;101323.66;5017045;28;45387;-70
2022/09/25 06:49:54;;;;;;;;;2.67;2.67;;;;;15.19;100.00;101311.25;5016388;28;52197;-73
2022/09/25 06:52:19;;;;;;;;;3.67;3.00;;;;;15.25;100.00;101321.88;4998339;28;60850;-71
2022/09/25 06:54:44;;;;;;;;;4.67;4.00;;;;;15.26;100.00;101320.09;5016045;28;61842;-70
2022/09/25 06:57:11;;;;;;;;;4.33;3.33;;;;;15.23;100.00;101314.75;5017488;28;46047;-70
2022/09/25 06:59:36;;;;;;;;;6.00;6.00;;;;;15.27;100.00;101319.19;5016290;28;45556;-72
2022/09/25 07:03:43;;;;;;;;;3.00;3.00;;;;;15.24;100.00;101311.25;5016364;28;45474;-72
2022/09/25 07:04:50;;;;;;;;;2.00;2.00;;;;;15.28;100.00;101321.84;5017238;28;45897;-71
2022/09/25 07:07:18;;;;;;;;;5.33;3.00;;;;;15.26;100.00;101326.28;5023887;28;45531;-70
2022/09/25 07:09:44;;;;;;;;;5.33;2.67;;;;;15.30;100.00;101328.06;5017580;28;45258;-71
2022/09/25 07:12:10;;;;;;;;;4.67;2.67;;;;;15.26;100.00;101328.97;5015852;28;59073;-71
2022/09/25 07:14:37;;;;;;;;;3.67;3.00;;;;;15.26;100.00;101322.75;5017416;28;45357;-72
2022/09/25 07:17:02;;;;;;;;;5.00;2.67;;;;;15.32;100.00;101341.38;5016237;28;45262;-70
2022/09/25 07:19:28;;;;;;;;;3.33;3.33;;;;;15.31;100.00;101334.28;5015279;28;45715;-71
2022/09/25 07:21:54;;;;;;;;;3.33;3.33;;;;;15.27;100.00;101321.88;5015833;28;61649;-71
2022/09/25 07:24:20;;;;;;;;;4.00;2.00;;;;;15.32;100.00;101323.63;5016224;28;45730;-71
2022/09/25 07:26:46;;;;;;;;;5.00;3.00;;;;;15.29;100.00;101323.66;5016038;28;45304;-72
2022/09/25 07:29:12;;;;;;;;;2.00;2.00;;;;;15.37;100.00;101339.59;5015930;28;45507;-72
2022/09/25 07:31:37;;;;;;;;;3.00;3.00;;;;;15.31;100.00;101326.31;5016672;28;46004;-74
2022/09/25 07:34:07;;;;;;;;;2.00;2.00;;;;;15.38;100.00;101336.03;5015529;28;45716;-72
2022/09/25 07:36:34;;;;;;;;;2.00;1.00;;;;;15.30;100.00;101320.09;5016687;28;45377;-72
2022/09/25 07:38:59;;;;;;;;;3.67;2.00;;;;;15.36;100.00;101341.38;5017278;28;45566;-73
2022/09/25 07:41:25;;;;;;;;;3.00;3.00;;;;;15.45;100.00;101357.34;5015948;28;64610;-72
2022/09/25 07:43:51;;;;;;;;;2.67;2.00;;;;;15.51;100.00;101348.47;5009886;28;45638;-71
2022/09/25 07:46:17;;;;;;;;;4.33;1.00;;;;;15.52;100.00;101347.56;5016268;28;45362;-72
2022/09/25 07:48:42;;;;;;;;;1.67;1.67;;;;;15.55;100.00;101342.22;5014379;28;59590;-76
2022/09/25 07:51:10;;;;;;;;;4.00;2.00;;;;;15.60;100.00;101343.09;4979654;28;49669;-77
2022/09/25 07:53:35;;;;;;;;;1.00;1.00;;;;;15.68;100.00;101343.16;5013616;28;47659;-77
2022/09/25 07:56:01;;;;;;;;;2.67;2.00;;;;;15.71;100.00;101338.72;5014322;28;45528;-74
2022/09/25 07:58:27;;;;;;;;;2.00;1.00;;;;;15.75;100.00;101354.66;5016713;28;45381;-73
2022/09/25 08:00:53;;;;;;;;;1.00;1.00;;;;;15.75;100.00;101344.00;4996234;28;46015;-73
2022/09/25 08:03:19;;;;;;;;;1.00;1.00;;;;;15.80;100.00;101344.91;5015641;28;45491;-72
2022/09/25 08:05:45;;;;;;;;;2.00;1.00;;;;;15.80;100.00;101337.78;5014443;28;46207;-72
2022/09/25 08:08:10;;;;;;;;;3.00;1.00;;;;;15.94;100.00;101354.63;5012912;28;45441;-73
2022/09/25 08:10:35;;;;;;;;;5.00;1.67;;;;;15.95;100.00;101344.84;5011354;28;55861;-73
2022/09/25 08:13:01;;;;;;;;;1.00;1.00;;;;;16.00;100.00;101345.72;4976065;28;47403;-72
2022/09/25 08:15:26;;;;;;;;;1.00;1.00;;;;;16.10;100.00;101354.59;5006606;28;55772;-73
2022/09/25 08:17:52;;;;;;;;;1.00;1.00;;;;;16.15;100.00;101352.78;5005850;28;45808;-71
2022/09/25 08:20:17;;;;;;;;;1.00;1.00;;;;;16.12;100.00;101348.34;4990159;28;46071;-73
2022/09/25 08:22:42;;;;;;;;;1.00;1.00;;;;;16.18;100.00;101350.97;5008681;28;47384;-72
2022/09/25 08:25:08;;;;;;;;;1.67;1.00;;;;;16.23;100.00;101358.97;5003024;28;45517;-72
2022/09/25 08:27:39;;;;;;;;;1.33;1.33;;;;;16.24;100.00;101350.97;5003515;28;45789;-73
2022/09/25 08:30:09;;;;;;;;;0.67;0.67;;;;;16.29;100.00;101358.06;5002927;28;45747;-74
2022/09/25 08:32:35;;;;;;;;;2.00;1.00;;;;;16.37;100.00;101367.78;5006440;28;45571;-73
2022/09/25 08:35:01;;;;;;;;;1.33;0.33;;;;;16.39;100.00;101354.47;5005286;28;45967;-73
2022/09/25 08:37:26;;;;;;;;;1.00;1.00;;;;;16.43;100.00;101357.09;5005971;28;46135;-72
2022/09/25 08:39:52;;;;;;;;;6.00;0.67;;;;;16.46;100.00;101365.09;5006559;28;61488;-73
2022/09/25 08:42:26;;;;;;;;;1.00;1.00;;;;;16.42;100.00;101350.00;5007705;28;45848;-74
2022/09/25 08:49:00;;;;;;;;;1.00;1.00;;;;;16.45;100.00;101349.09;4999946;28;45526;-73
2022/09/25 08:50:36;;;;;;;;;1.00;1.00;;;;;16.58;100.00;101353.47;4986001;28;45518;-73
2022/09/25 08:53:16;;;;;;;;;2.33;1.00;;;;;16.56;100.00;101344.59;5006865;28;46329;-72
2022/09/25 08:58:29;;;;;;;;;1.00;1.00;;;;;16.64;100.00;101349.91;4990168;28;45910;-74
2022/09/25 09:01:05;;;;;;;;;5.67;1.67;;;;;16.66;100.00;101348.97;5005786;28;45450;-73
2022/09/25 09:03:32;;;;;;;;;2.00;2.00;;;;;16.71;100.00;101349.00;5007761;28;45965;-73
2022/09/25 09:06:07;;;;;;;;;1.67;1.00;;;;;16.75;100.00;101353.41;5007521;28;45654;-74
2022/09/25 09:08:35;;;;;;;;;0.33;0.33;;;;;16.76;100.00;101353.41;5006561;28;45533;-73
2022/09/25 09:11:17;;;;;;;;;3.00;1.00;;;;;16.77;100.00;101352.50;5007862;28;45433;-73
2022/09/25 09:13:54;;;;;;;;;1.00;1.00;;;;;16.86;100.00;101350.69;5007021;28;46558;-74
2022/09/25 09:16:25;;;;;;;;;2.00;1.00;;;;;16.90;100.00;101355.09;4990553;28;45562;-73
2022/09/25 09:18:51;;;;;;;;;0.00;0.00;;;;;16.93;100.00;101357.72;5007944;28;46051;-74
2022/09/25 09:21:26;;;;;;;;;0.67;0.33;;;;;16.97;100.00;101357.72;5007811;28;56930;-73
2022/09/25 09:24:05;;;;;;;;;2.33;1.00;;;;;17.00;100.00;101359.50;5009747;28;47048;-73
2022/09/25 09:26:52;;;;;;;;;0.00;0.00;;;;;17.06;100.00;101362.09;5012847;28;45659;-73
2022/09/25 09:29:26;;;;;;;;;2.67;0.33;;;;;17.11;100.00;101365.63;5010952;28;45373;-73
2022/09/25 09:32:29;;;;;;;;;2.33;0.00;;;;;17.15;100.00;101358.47;5011403;28;45501;-73
2022/09/25 09:35:01;;;;;;;;;1.00;1.00;;;;;17.19;100.00;101358.44;5010368;28;47087;-73
2022/09/25 09:37:33;;;;;;;;;3.00;1.00;;;;;17.21;100.00;101345.09;5010656;28;45610;-73
2022/09/25 09:40:20;;;;;;;;;1.00;1.00;;;;;17.31;100.00;101351.22;5011246;28;45610;-72
2022/09/25 09:43:03;;;;;;;;;0.00;0.00;;;;;17.34;100.00;101352.09;5009906;28;45972;-73
2022/09/25 09:46:03;;;;;;;;;0.00;0.00;;;;;17.39;100.00;101352.06;5010234;28;47547;-73
2022/09/25 09:48:36;;;;;;;;;0.00;0.00;;;;;17.44;100.00;101352.91;5010237;28;45530;-73
2022/09/25 09:51:15;;;;;;;;;0.33;0.33;;;;;17.46;100.00;101356.44;4976264;28;45579;-73
2022/09/25 09:53:49;;;;;;;;;0.00;0.00;;;;;17.52;100.00;101354.63;4992856;28;45508;-73
2022/09/25 09:56:18;;;;;;;;;1.00;0.00;;;;;17.60;100.00;101356.31;5006450;28;46040;-73
2022/09/25 09:58:54;;;;;;;;;1.00;1.00;;;;;17.64;100.00;101355.41;4992339;28;45922;-73
2022/09/25 10:01:22;;;;;;;;;0.00;0.00;;;;;17.68;100.00;101354.44;4992424;28;45885;-74
2022/09/25 10:03:52;;;;;;;;;0.00;0.00;;;;;17.74;100.00;101360.66;4991427;28;46000;-73
2022/09/25 10:06:19;;;;;;;;;0.00;0.00;;;;;17.73;100.00;101345.50;5007682;28;46755;-72
2022/09/25 10:08:44;;;;;;;;;2.00;0.00;;;;;17.84;100.00;101360.53;5009199;28;64496;-73
2022/09/25 10:11:16;;;;;;;;;2.00;0.00;;;;;17.86;100.00;101348.06;5009626;28;58325;-73
2022/09/25 10:13:41;;;;;;;;;2.00;0.00;;;;;17.94;100.00;101351.53;5010278;28;45458;-72
2022/09/25 10:16:13;;;;;;;;;0.67;0.00;;;;;17.95;100.00;101347.94;4987621;28;46273;-73
2022/09/25 10:18:47;;;;;;;;;0.33;0.33;;;;;18.01;100.00;101342.56;5007507;28;45539;-73
2022/09/25 10:21:24;;;;;;;;;0.00;0.00;;;;;18.08;100.00;101338.91;5009818;28;46888;-73
2022/09/25 10:23:52;;;;;;;;;0.00;0.00;;;;;18.11;100.00;101332.63;5008132;28;45773;-73
2022/09/25 10:26:27;;;;;;;;;0.00;0.00;;;;;18.20;100.00;101341.44;5010467;28;46431;-73
2022/09/25 10:28:57;;;;;;;;;0.00;0.00;;;;;18.24;100.00;101335.16;5009528;28;45791;-73
2022/09/25 10:31:25;;;;;;;;;0.00;0.00;;;;;18.30;100.00;101337.75;5010229;28;45432;-73
2022/09/25 10:34:05;;;;;;;;;1.00;0.67;;;;;18.37;100.00;101334.97;5009331;28;45829;-73
2022/09/25 10:36:43;;;;;;;;;0.00;0.00;;;;;18.39;100.00;101327.84;5009483;28;46422;-73
2022/09/25 10:39:30;;;;;;;;;0.00;0.00;;;;;18.50;100.00;101339.28;4991732;28;45452;-73
2022/09/25 10:41:59;;;;;;;;;0.00;0.00;;;;;18.55;100.00;101327.59;5001680;28;45523;-73
2022/09/25 10:44:34;;;;;;;;;0.00;0.00;;;;;18.60;100.00;101319.53;4992023;28;45593;-73
2022/09/25 10:50:11;;;;;;;;;1.00;0.00;;;;;18.69;100.00;101321.19;5009704;28;45496;-73
2022/09/25 10:52:51;;;;;;;;;0.00;0.00;;;;;18.69;100.00;101315.84;5010192;28;45535;-73
2022/09/25 10:55:26;;;;;;;;;4.67;1.33;;;;;18.79;99.87;101323.72;5007046;28;45872;-73
2022/09/25 10:58:09;;;;;;;;;0.33;0.33;;;;;18.86;99.11;101327.19;4991911;28;47676;-73
2022/09/25 11:00:42;;;;;;;;;1.33;0.00;;;;;18.88;97.83;101322.69;5009714;28;45441;-73
2022/09/25 11:03:19;;;;;;;;;0.00;0.00;;;;;18.94;96.29;101321.72;5008888;28;45413;-74
2022/09/25 11:05:50;;;;;;;;;0.67;0.00;;;;;18.96;96.52;101311.84;4994459;28;45911;-73
2022/09/25 11:08:15;;;;;;;;;0.00;0.00;;;;;19.04;94.92;101320.66;4991717;28;45847;-73
2022/09/25 11:10:53;;;;;;;;;0.00;0.00;;;;;19.10;93.63;101325.91;4990403;28;64762;-73
2022/09/25 11:13:23;;;;;;;;;3.67;3.67;;;;;19.15;93.19;101323.16;4990944;28;45442;-73
2022/09/25 11:15:52;;;;;;;;;1.33;0.00;;;;;19.17;92.71;101322.22;5009120;28;45532;-73
2022/09/25 11:19:12;;;;;;;;;2.00;0.00;;;;;19.24;92.33;101331.94;5009147;28;45764;-73
2022/09/25 11:21:44;;;;;;;;;0.00;0.00;;;;;19.32;91.33;101331.78;4927672;28;45617;-72
2022/09/25 11:24:14;;;;;;;;;0.67;0.00;;;;;19.37;90.58;101328.13;5003819;28;45886;-73
2022/09/25 11:27:06;;;;;;;;;1.00;0.33;;;;;19.37;89.20;101325.44;4991380;28;45494;-73
2022/09/25 11:29:43;;;;;;;;;0.00;0.00;;;;;19.47;88.42;101326.16;4967417;28;46689;-73
2022/09/25 11:32:19;;;;;;;;;1.33;0.00;;;;;19.57;87.78;101335.81;5008287;28;45859;-73
2022/09/25 11:35:21;;;;;;;;;0.00;0.00;;;;;19.62;87.30;101330.41;5000571;28;45612;-73
2022/09/25 11:38:05;;;;;;;;;0.67;0.00;;;;;19.70;87.74;101327.56;5007536;28;45567;-73
2022/09/25 11:43:29;;;;;;;;;0.00;0.00;;;;;19.84;87.07;101336.25;4993141;28;45519;-72
2022/09/25 11:46:06;;;;;;;;;0.00;0.00;;;;;19.91;85.90;101329.84;5008702;28;45500;-73
2022/09/25 11:48:39;;;;;;;;;0.00;0.00;;;;;19.99;85.79;101327.03;5006338;28;46049;-73
2022/09/25 11:51:13;;;;;;;;;0.00;0.00;;;;;20.08;85.33;101326.81;4991014;28;45765;-73
2022/09/25 11:54:04;;;;;;;;;0.00;0.00;;;;;20.18;84.91;101317.66;5008529;28;45977;-73